createdAt,value
2023-02-06T00:00:56.936Z,103234.28
2023-02-06T00:03:24.568Z,103231.97
2023-02-06T00:05:56.687Z,103224.34
2023-02-06T00:08:24.354Z,103223.16
2023-02-06T00:10:52.144Z,103217.22
2023-02-06T00:13:19.794Z,103205.78
2023-02-06T00:15:47.487Z,103216.25
2023-02-06T00:18:16.581Z,103208.31
2023-02-06T00:20:44.207Z,103208.22
2023-02-06T00:23:12.016Z,103211.69
2023-02-06T00:25:39.630Z,103202.25
2023-02-06T00:28:07.400Z,103194.00
2023-02-06T00:30:35.100Z,103196.53
2023-02-06T00:33:02.897Z,103199.72
2023-02-06T00:35:32.057Z,103191.00
2023-02-06T00:38:00.851Z,103182.75
2023-02-06T00:40:28.530Z,103184.44
2023-02-06T00:42:56.150Z,103184.22
2023-02-06T00:45:23.843Z,103178.53
2023-02-06T00:47:51.450Z,103179.75
2023-02-06T00:50:19.294Z,103190.88
2023-02-06T00:52:48.599Z,103190.78
2023-02-06T00:55:16.533Z,103194.19
2023-02-06T00:57:44.415Z,103196.44
2023-02-06T01:00:13.210Z,103203.75
2023-02-06T01:02:40.964Z,103212.72
2023-02-06T01:05:09.670Z,103211.38
2023-02-06T01:07:39.321Z,103219.22
2023-02-06T01:10:10.371Z,103217.50
2023-02-06T01:12:38.820Z,103217.50
2023-02-06T01:15:07.745Z,103216.03
2023-02-06T01:17:36.066Z,103221.09
2023-02-06T01:20:04.139Z,103222.03
2023-02-06T01:22:34.285Z,103229.81
2023-02-06T01:25:02.078Z,103224.69
2023-02-06T01:27:31.658Z,103224.91
2023-02-06T01:29:59.313Z,103219.78
2023-02-06T01:32:26.924Z,103221.44
2023-02-06T01:34:54.554Z,103210.78
2023-02-06T01:37:22.171Z,103202.59
2023-02-06T01:39:49.807Z,103207.44
2023-02-06T01:42:17.499Z,103201.13
2023-02-06T01:44:46.694Z,103212.19
2023-02-06T01:47:14.467Z,103206.00
2023-02-06T01:49:44.720Z,103202.38
2023-02-06T01:52:15.659Z,103202.41
2023-02-06T01:54:43.936Z,103203.25
2023-02-06T01:57:13.011Z,103197.41
2023-02-06T01:59:42.269Z,103199.66
2023-02-06T02:02:12.031Z,103196.22
2023-02-06T02:04:39.675Z,103190.94
2023-02-06T02:07:12.147Z,103191.41
2023-02-06T02:09:39.959Z,103183.00
2023-02-06T02:12:07.997Z,103195.63
2023-02-06T02:14:35.944Z,103200.47
2023-02-06T02:17:16.191Z,103204.84
2023-02-06T02:20:02.558Z,103201.53
2023-02-06T02:22:54.741Z,103209.53
2023-02-06T02:25:39.878Z,103197.09
2023-02-06T02:28:36.339Z,103200.47
2023-02-06T02:31:21.417Z,103198.38
2023-02-06T02:34:34.637Z,103187.75
2023-02-06T02:37:09.222Z,103192.03
2023-02-06T02:39:43.463Z,103203.91
2023-02-06T02:42:14.573Z,103198.13
2023-02-06T02:44:47.156Z,103185.91
2023-02-06T02:47:16.521Z,103184.91
2023-02-06T02:49:46.502Z,103190.53
2023-02-06T02:52:16.498Z,103184.91
2023-02-06T02:54:44.193Z,103192.41
2023-02-06T02:57:15.419Z,103201.28
2023-02-06T02:59:45.140Z,103198.34
2023-02-06T03:02:14.779Z,103196.03
2023-02-06T03:04:47.378Z,103189.66
2023-02-06T03:07:23.551Z,103185.63
2023-02-06T03:09:59.310Z,103199.41
2023-02-06T03:12:36.090Z,103185.91
2023-02-06T03:15:05.583Z,103190.66
2023-02-06T03:17:36.392Z,103191.78
2023-02-06T03:20:06.744Z,103203.41
2023-02-06T03:22:36.932Z,103206.44
2023-02-06T03:25:06.533Z,103208.88
2023-02-06T03:27:35.060Z,103207.63
2023-02-06T03:30:04.393Z,103194.41
2023-02-06T03:32:33.910Z,103197.28
2023-02-06T03:35:04.477Z,103190.72
2023-02-06T03:37:32.655Z,103193.94
2023-02-06T03:40:02.262Z,103189.78
2023-02-06T03:42:31.207Z,103187.38
2023-02-06T03:45:01.787Z,103193.50
2023-02-06T03:47:30.692Z,103189.91
2023-02-06T03:50:00.212Z,103184.22
2023-02-06T03:52:33.036Z,103181.66
2023-02-06T03:55:06.501Z,103182.03
2023-02-06T03:57:35.697Z,103185.44
2023-02-06T04:00:03.576Z,103182.13
2023-02-06T04:02:32.185Z,103191.91
2023-02-06T04:04:59.868Z,103201.59
2023-02-06T04:07:28.973Z,103202.88
2023-02-06T04:09:56.934Z,103200.00
2023-02-06T04:12:26.584Z,103210.03
2023-02-06T04:14:54.511Z,103203.88
2023-02-06T04:17:40.604Z,103215.63
2023-02-06T04:20:11.040Z,103223.69
2023-02-06T04:22:40.134Z,103227.16
2023-02-06T04:25:08.218Z,103229.00
2023-02-06T04:28:00.910Z,103230.06
2023-02-06T04:30:28.670Z,103228.25
2023-02-06T04:32:56.356Z,103231.63
2023-02-06T04:35:24.037Z,103225.25
2023-02-06T04:37:51.896Z,103221.84
2023-02-06T04:40:19.795Z,103223.34
2023-02-06T04:42:47.643Z,103236.22
2023-02-06T04:45:17.180Z,103245.63
2023-02-06T04:47:45.061Z,103252.72
2023-02-06T04:50:13.009Z,103241.56
2023-02-06T04:52:40.685Z,103221.25
2023-02-06T04:55:09.072Z,103222.28
2023-02-06T04:57:36.833Z,103224.06
2023-02-06T05:00:05.993Z,103212.50
2023-02-06T05:02:39.493Z,103221.97
2023-02-06T05:05:09.561Z,103218.19
2023-02-06T05:07:37.614Z,103216.06
2023-02-06T05:10:05.690Z,103217.22
2023-02-06T05:12:33.606Z,103218.22
2023-02-06T05:15:01.264Z,103213.94
2023-02-06T05:17:29.000Z,103215.03
2023-02-06T05:19:58.618Z,103212.81
2023-02-06T05:22:26.552Z,103214.03
2023-02-06T05:24:54.289Z,103218.03
2023-02-06T05:27:22.029Z,103210.31
2023-02-06T05:29:49.761Z,103204.72
2023-02-06T05:32:18.223Z,103195.91
2023-02-06T05:34:48.959Z,103186.13
2023-02-06T05:37:18.173Z,103180.41
2023-02-06T05:39:46.289Z,103191.06
2023-02-06T05:42:14.135Z,103188.94
2023-02-06T05:44:41.802Z,103185.38
2023-02-06T05:47:09.515Z,103194.50
2023-02-06T05:49:37.206Z,103184.06
2023-02-06T05:52:05.010Z,103191.50
2023-02-06T05:54:34.466Z,103187.59
2023-02-06T05:57:02.135Z,103191.47
2023-02-06T05:59:29.940Z,103191.84
2023-02-06T06:01:57.628Z,103195.94
2023-02-06T06:04:26.033Z,103189.63
2023-02-06T06:06:53.891Z,103191.84
2023-02-06T06:09:22.016Z,103199.53
2023-02-06T06:11:51.992Z,103201.22
2023-02-06T06:14:19.808Z,103194.25
2023-02-06T06:16:47.495Z,103201.19
2023-02-06T06:19:15.210Z,103205.38
2023-02-06T06:21:43.216Z,103202.38
2023-02-06T06:24:11.068Z,103202.63
2023-02-06T06:26:39.343Z,103206.59
2023-02-06T06:29:08.467Z,103205.38
2023-02-06T06:31:36.414Z,103190.84
2023-02-06T06:34:04.420Z,103195.28
2023-02-06T06:36:43.055Z,103195.19
2023-02-06T06:39:10.968Z,103196.31
2023-02-06T06:41:38.977Z,103192.63
2023-02-06T06:44:08.022Z,103188.38
2023-02-06T06:46:35.680Z,103192.16
2023-02-06T06:49:03.407Z,103188.28
2023-02-06T06:51:31.131Z,103179.50
2023-02-06T06:53:58.986Z,103184.03
2023-02-06T06:56:26.988Z,103175.78
2023-02-06T06:58:55.507Z,103181.19
2023-02-06T07:01:24.710Z,103174.72
2023-02-06T07:03:52.406Z,103164.47
2023-02-06T07:06:20.086Z,103171.72
2023-02-06T07:08:47.910Z,103180.25
2023-02-06T07:11:26.195Z,103180.63
2023-02-06T07:13:54.192Z,103183.66
2023-02-06T07:16:21.915Z,103180.69
2023-02-06T07:18:51.292Z,103184.31
2023-02-06T07:21:19.944Z,103186.53
2023-02-06T07:23:47.639Z,103190.59
2023-02-06T07:26:15.453Z,103191.19
2023-02-06T07:28:43.533Z,103196.31
2023-02-06T07:31:11.782Z,103187.66
2023-02-06T07:33:39.784Z,103178.94
2023-02-06T07:38:54.061Z,103183.22
2023-02-06T07:41:21.734Z,103192.34
2023-02-06T07:43:49.355Z,103194.13
2023-02-06T07:46:17.158Z,103188.91
2023-02-06T07:48:44.841Z,103202.88
2023-02-06T07:51:12.564Z,103193.03
2023-02-06T07:53:40.263Z,103186.69
2023-02-06T07:56:13.494Z,103181.50
2023-02-06T07:58:41.345Z,103185.50
2023-02-06T08:01:09.450Z,103182.44
2023-02-06T08:03:37.644Z,103180.19
2023-02-06T08:06:09.392Z,103189.88
2023-02-06T08:08:37.635Z,103184.72
2023-02-06T08:11:06.684Z,103191.28
2023-02-06T08:13:55.792Z,103193.16
2023-02-06T08:16:24.512Z,103201.59
2023-02-06T08:19:23.435Z,103201.59
2023-02-06T08:21:51.274Z,103201.81
2023-02-06T08:24:19.034Z,103200.31
2023-02-06T08:26:46.711Z,103198.41
2023-02-06T08:29:15.870Z,103189.03
2023-02-06T08:31:44.138Z,103190.19
2023-02-06T08:34:14.679Z,103191.47
2023-02-06T08:36:43.657Z,103202.91
2023-02-06T08:39:12.725Z,103198.22
2023-02-06T08:41:41.740Z,103203.53
2023-02-06T08:44:12.835Z,103196.22
2023-02-06T08:46:42.741Z,103196.34
2023-02-06T08:49:15.284Z,103204.19
2023-02-06T08:51:43.832Z,103196.72
2023-02-06T08:54:22.562Z,103192.81
2023-02-06T08:56:51.034Z,103195.88
2023-02-06T08:59:20.367Z,103201.84
2023-02-06T09:01:50.271Z,103204.50
2023-02-06T09:04:19.433Z,103207.13
2023-02-06T09:06:48.828Z,103199.22
2023-02-06T09:09:17.317Z,103202.16
2023-02-06T09:12:22.713Z,103196.94
2023-02-06T09:14:51.046Z,103199.19
2023-02-06T09:17:20.084Z,103192.16
2023-02-06T09:19:47.752Z,103201.91
2023-02-06T09:22:15.470Z,103203.72
2023-02-06T09:24:43.245Z,103202.81
2023-02-06T09:27:10.902Z,103212.81
2023-02-06T09:29:38.527Z,103206.00
2023-02-06T09:32:06.369Z,103197.94
2023-02-06T09:34:36.006Z,103203.13
2023-02-06T09:37:04.141Z,103223.88
2023-02-06T09:39:32.075Z,103215.72
2023-02-06T09:42:04.818Z,103219.81
2023-02-06T09:44:34.599Z,103223.28
2023-02-06T09:47:07.635Z,103227.75
2023-02-06T09:49:44.838Z,103222.72
2023-02-06T09:52:22.046Z,103224.66
2023-02-06T09:54:55.709Z,103221.91
2023-02-06T09:57:31.420Z,103218.28
2023-02-06T10:00:03.436Z,103211.78
2023-02-06T10:02:51.799Z,103212.16
2023-02-06T10:05:25.209Z,103213.06
2023-02-06T10:08:00.438Z,103215.94
2023-02-06T10:10:38.468Z,103214.44
2023-02-06T10:13:12.025Z,103218.91
2023-02-06T10:15:45.258Z,103214.91
2023-02-06T10:18:16.554Z,103221.75
2023-02-06T10:20:49.678Z,103217.25
2023-02-06T10:23:22.135Z,103220.84
2023-02-06T10:25:54.145Z,103215.66
2023-02-06T10:28:24.654Z,103211.63
2023-02-06T10:31:04.505Z,103208.53
2023-02-06T10:33:36.517Z,103205.34
2023-02-06T10:36:10.794Z,103197.25
2023-02-06T10:39:01.006Z,103197.22
2023-02-06T10:41:33.707Z,103184.00
2023-02-06T10:44:14.902Z,103186.22
2023-02-06T10:46:44.192Z,103174.25
2023-02-06T10:49:18.771Z,103172.78
2023-02-06T10:51:52.695Z,103170.13
2023-02-06T10:54:23.366Z,103167.38
2023-02-06T10:56:53.136Z,103168.13
2023-02-06T10:59:28.160Z,103172.50
2023-02-06T11:02:03.220Z,103153.38
2023-02-06T11:04:36.573Z,103145.38
2023-02-06T11:07:10.373Z,103151.94
2023-02-06T11:09:38.144Z,103160.59
2023-02-06T11:12:06.568Z,103163.44
2023-02-06T11:14:37.319Z,103162.03
2023-02-06T11:17:05.002Z,103153.00
2023-02-06T11:19:36.055Z,103154.44
2023-02-06T11:22:13.579Z,103155.91
2023-02-06T11:24:59.873Z,103154.81
2023-02-06T11:27:28.212Z,103159.66
2023-02-06T11:29:55.894Z,103163.28
2023-02-06T11:32:30.668Z,103166.09
2023-02-06T11:35:01.241Z,103155.84
2023-02-06T11:37:42.912Z,103146.72
2023-02-06T11:40:24.420Z,103141.75
2023-02-06T11:42:53.843Z,103135.41
2023-02-06T11:45:27.757Z,103127.97
2023-02-06T11:47:55.724Z,103125.69
2023-02-06T11:50:28.421Z,103128.25
2023-02-06T11:53:09.471Z,103135.59
2023-02-06T11:55:38.680Z,103140.78
2023-02-06T11:58:18.826Z,103138.88
2023-02-06T12:00:58.649Z,103134.16
2023-02-06T12:03:31.292Z,103135.25
2023-02-06T12:06:03.257Z,103148.63
2023-02-06T12:08:45.430Z,103155.53
2023-02-06T12:11:18.947Z,103163.03
2023-02-06T12:14:04.273Z,103148.47
2023-02-06T12:16:34.087Z,103147.63
2023-02-06T12:19:16.943Z,103134.09
2023-02-06T12:21:47.722Z,103130.63
2023-02-06T12:24:23.658Z,103127.53
2023-02-06T12:26:51.778Z,103121.88
2023-02-06T12:29:22.730Z,103130.25
2023-02-06T12:32:22.312Z,103125.69
2023-02-06T12:34:54.320Z,103130.78
2023-02-06T12:37:31.493Z,103121.69
2023-02-06T12:40:01.326Z,103113.75
2023-02-06T12:42:37.278Z,103120.78
2023-02-06T12:45:11.997Z,103119.47
2023-02-06T12:47:43.949Z,103115.09
2023-02-06T12:50:15.673Z,103117.94
2023-02-06T12:52:46.666Z,103107.72
2023-02-06T12:55:20.546Z,103112.53
2023-02-06T12:57:48.358Z,103113.25
2023-02-06T13:00:28.635Z,103119.09
2023-02-06T13:03:08.728Z,103115.81
2023-02-06T13:05:38.651Z,103124.31
2023-02-06T13:08:09.678Z,103126.41
2023-02-06T13:11:05.060Z,103111.41
2023-02-06T13:13:34.750Z,103107.94
2023-02-06T13:16:02.482Z,103105.97
2023-02-06T13:18:50.748Z,103115.03
2023-02-06T13:21:20.922Z,103119.28
2023-02-06T13:23:53.533Z,103113.06
2023-02-06T13:27:02.900Z,103109.63
2023-02-06T13:29:33.135Z,103096.25
2023-02-06T13:32:32.502Z,103090.78
2023-02-06T13:35:08.396Z,103084.63
2023-02-06T13:37:38.317Z,103082.06
2023-02-06T13:40:20.929Z,103096.47
2023-02-06T13:42:52.898Z,103082.75
2023-02-06T13:45:23.420Z,103077.31
2023-02-06T13:48:11.547Z,103083.94
2023-02-06T13:50:56.655Z,103081.13
2023-02-06T13:53:37.712Z,103096.56
2023-02-06T13:56:27.227Z,103094.19
2023-02-06T13:59:16.558Z,103091.44
2023-02-06T14:01:44.340Z,103100.69
2023-02-06T14:04:19.315Z,103081.91
2023-02-06T14:07:01.626Z,103075.00
2023-02-06T14:09:58.987Z,103073.53
2023-02-06T14:12:35.581Z,103073.38
2023-02-06T14:15:31.201Z,103059.34
2023-02-06T14:18:17.915Z,103059.50
2023-02-06T14:20:52.774Z,103064.81
2023-02-06T14:23:28.813Z,103067.97
2023-02-06T14:26:06.562Z,103081.88
2023-02-06T14:28:42.260Z,103084.06
2023-02-06T14:31:20.144Z,103076.97
2023-02-06T14:33:57.459Z,103062.44
2023-02-06T14:36:38.313Z,103060.50
2023-02-06T14:39:30.488Z,103063.13
2023-02-06T14:41:58.565Z,103061.13
2023-02-06T14:44:30.792Z,103078.78
2023-02-06T14:47:00.060Z,103091.69
2023-02-06T14:49:32.881Z,103094.34
2023-02-06T14:54:38.404Z,103091.34
2023-02-06T14:57:25.591Z,103091.34
2023-02-06T14:59:55.746Z,103084.31
2023-02-06T15:02:29.435Z,103088.78
2023-02-06T15:04:57.366Z,103080.72
2023-02-06T15:07:29.610Z,103070.34
2023-02-06T15:10:00.945Z,103060.63
2023-02-06T15:12:30.226Z,103053.16
2023-02-06T15:15:02.721Z,103056.97
2023-02-06T15:17:34.059Z,103072.75
2023-02-06T15:20:27.850Z,103074.81
2023-02-06T15:23:05.074Z,103085.00
2023-02-06T15:25:49.106Z,103069.28
2023-02-06T15:28:19.879Z,103067.75
2023-02-06T15:30:48.560Z,103055.31
2023-02-06T15:33:23.841Z,103060.75
2023-02-06T15:35:54.213Z,103056.38
2023-02-06T15:38:23.135Z,103064.47
2023-02-06T15:40:52.518Z,103072.78
2023-02-06T15:43:22.030Z,103068.13
2023-02-06T15:45:51.291Z,103081.91
2023-02-06T15:48:24.714Z,103075.47
2023-02-06T15:50:57.638Z,103079.19
2023-02-06T15:53:34.761Z,103079.34
2023-02-06T15:56:04.105Z,103070.03
2023-02-06T15:58:33.285Z,103076.88
2023-02-06T16:01:01.427Z,103074.91
2023-02-06T16:03:31.622Z,103075.09
2023-02-06T16:05:59.767Z,103073.56
2023-02-06T16:08:30.372Z,103066.69
2023-02-06T16:11:00.675Z,103069.03
2023-02-06T16:13:30.052Z,103063.09
2023-02-06T16:16:08.446Z,103063.47
2023-02-06T16:18:38.465Z,103057.41
2023-02-06T16:21:18.895Z,103060.34
2023-02-06T16:23:47.354Z,103061.22
2023-02-06T16:26:17.984Z,103064.59
2023-02-06T16:28:56.416Z,103063.13
2023-02-06T16:31:25.246Z,103063.88
2023-02-06T16:33:55.708Z,103064.56
2023-02-06T16:36:24.712Z,103068.09
2023-02-06T16:39:03.166Z,103067.75
2023-02-06T16:41:34.273Z,103062.16
2023-02-06T16:44:03.103Z,103055.41
2023-02-06T16:46:30.954Z,103051.66
2023-02-06T16:49:00.893Z,103061.44
2023-02-06T16:51:31.067Z,103050.81
2023-02-06T16:53:59.322Z,103058.78
2023-02-06T16:56:27.075Z,103037.50
2023-02-06T16:58:54.796Z,103039.91
2023-02-06T17:01:25.230Z,103047.44
2023-02-06T17:03:53.482Z,103046.59
2023-02-06T17:06:24.956Z,103050.03
2023-02-06T17:08:53.281Z,103052.25
2023-02-06T17:11:21.369Z,103058.47
2023-02-06T17:13:49.101Z,103049.31
2023-02-06T17:16:19.320Z,103050.06
2023-02-06T17:18:47.516Z,103053.69
2023-02-06T17:21:17.208Z,103047.19
2023-02-06T17:23:48.874Z,103057.41
2023-02-06T17:26:19.203Z,103051.13
2023-02-06T17:28:47.535Z,103054.31
2023-02-06T17:31:15.660Z,103058.84
2023-02-06T17:33:43.650Z,103055.63
2023-02-06T17:36:15.926Z,103061.34
2023-02-06T17:38:43.653Z,103056.44
2023-02-06T17:41:12.762Z,103063.13
2023-02-06T17:43:40.530Z,103064.00
2023-02-06T17:46:08.396Z,103066.47
2023-02-06T17:48:39.316Z,103059.56
2023-02-06T17:51:07.292Z,103062.63
2023-02-06T17:53:34.972Z,103063.13
2023-02-06T17:56:05.486Z,103071.78
2023-02-06T17:58:35.027Z,103065.66
2023-02-06T18:01:02.718Z,103064.75
2023-02-06T18:03:30.605Z,103074.63
2023-02-06T18:05:59.198Z,103065.91
2023-02-06T18:08:27.556Z,103072.28
2023-02-06T18:10:55.598Z,103069.94
2023-02-06T18:13:24.443Z,103068.97
2023-02-06T18:15:55.251Z,103075.66
2023-02-06T18:18:23.648Z,103073.44
2023-02-06T18:20:52.184Z,103068.88
2023-02-06T18:23:20.294Z,103066.19
2023-02-06T18:25:47.957Z,103069.94
2023-02-06T18:28:17.433Z,103066.25
2023-02-06T18:30:45.924Z,103054.00
2023-02-06T18:33:15.055Z,103049.88
2023-02-06T18:35:45.620Z,103068.66
2023-02-06T18:38:14.255Z,103073.41
2023-02-06T18:40:42.985Z,103071.03
2023-02-06T18:43:09.628Z,103066.03
2023-02-06T18:45:38.896Z,103072.28
2023-02-06T18:48:09.092Z,103070.00
2023-02-06T18:50:40.191Z,103073.53
2023-02-06T18:53:08.546Z,103063.34
2023-02-06T18:55:37.275Z,103073.94
2023-02-06T18:58:05.676Z,103070.84
2023-02-06T19:00:35.801Z,103075.97
2023-02-06T19:03:03.775Z,103068.22
2023-02-06T19:05:35.243Z,103076.50
2023-02-06T19:08:04.373Z,103073.97
2023-02-06T19:10:32.057Z,103080.00
2023-02-06T19:13:00.111Z,103081.81
2023-02-06T19:15:30.134Z,103087.94
2023-02-06T19:17:58.025Z,103083.72
2023-02-06T19:20:25.886Z,103081.16
2023-02-06T19:22:54.066Z,103076.44
2023-02-06T19:25:23.498Z,103075.25
2023-02-06T19:27:51.587Z,103073.06
2023-02-06T19:30:19.413Z,103067.16
2023-02-06T19:32:48.754Z,103064.53
2023-02-06T19:35:17.278Z,103072.81
2023-02-06T19:37:48.193Z,103086.19
2023-02-06T19:40:16.072Z,103072.97
2023-02-06T19:42:45.738Z,103076.19
2023-02-06T19:45:13.795Z,103083.16
2023-02-06T19:47:42.586Z,103084.66
2023-02-06T19:50:12.626Z,103084.88
2023-02-06T19:52:41.877Z,103080.59
2023-02-06T19:55:09.889Z,103076.91
2023-02-06T19:57:39.618Z,103083.53
2023-02-06T20:00:10.378Z,103092.84
2023-02-06T20:02:39.075Z,103090.41
2023-02-06T20:05:07.638Z,103101.34
2023-02-06T20:07:35.307Z,103094.31
2023-02-06T20:10:03.153Z,103092.84
2023-02-06T20:12:31.719Z,103096.22
2023-02-06T20:15:00.606Z,103083.19
2023-02-06T20:17:30.227Z,103100.97
2023-02-06T20:19:59.576Z,103111.34
2023-02-06T20:22:27.721Z,103107.47
2023-02-06T20:24:55.681Z,103114.47
2023-02-06T20:27:23.359Z,103112.28
2023-02-06T20:29:51.126Z,103113.00
2023-02-06T20:32:19.463Z,103114.72
2023-02-06T20:34:48.566Z,103120.16
2023-02-06T20:37:17.656Z,103122.41
2023-02-06T20:39:45.670Z,103122.28
2023-02-06T20:42:13.316Z,103114.16
2023-02-06T20:44:41.132Z,103119.41
2023-02-06T20:47:08.845Z,103127.19
2023-02-06T20:49:36.532Z,103113.31
2023-02-06T20:52:06.387Z,103114.25
2023-02-06T20:54:34.362Z,103113.81
2023-02-06T20:57:02.055Z,103117.56
2023-02-06T20:59:29.785Z,103116.25
2023-02-06T21:01:57.499Z,103115.13
2023-02-06T21:04:25.720Z,103117.00
2023-02-06T21:06:53.498Z,103118.09
2023-02-06T21:09:22.604Z,103120.84
2023-02-06T21:11:51.130Z,103123.56
2023-02-06T21:14:19.857Z,103125.44
2023-02-06T21:16:47.989Z,103127.13
2023-02-06T21:19:18.758Z,103126.22
2023-02-06T21:21:47.098Z,103131.19
2023-02-06T21:24:15.546Z,103137.31
2023-02-06T21:26:45.279Z,103130.72
2023-02-06T21:29:13.866Z,103128.22
2023-02-06T21:31:55.716Z,103123.81
2023-02-06T21:34:28.339Z,103128.72
2023-02-06T21:36:56.039Z,103121.25
2023-02-06T21:39:27.145Z,103120.66
2023-02-06T21:41:57.106Z,103119.63
2023-02-06T21:44:26.395Z,103116.72
2023-02-06T21:46:55.912Z,103119.59
2023-02-06T21:49:23.785Z,103126.69
2023-02-06T21:51:51.787Z,103121.25
2023-02-06T21:54:20.032Z,103117.69
2023-02-06T21:56:47.736Z,103119.47
2023-02-06T21:59:16.780Z,103119.44
2023-02-06T22:01:44.504Z,103123.88
2023-02-06T22:04:12.871Z,103116.13
2023-02-06T22:06:41.178Z,103118.75
2023-02-06T22:09:10.534Z,103125.59
2023-02-06T22:11:40.208Z,103114.47
2023-02-06T22:14:10.853Z,103117.09
2023-02-06T22:16:40.303Z,103116.50
2023-02-06T22:19:08.480Z,103113.34
2023-02-06T22:21:36.504Z,103109.81
2023-02-06T22:24:07.895Z,103108.91
2023-02-06T22:26:38.958Z,103115.22
2023-02-06T22:29:07.390Z,103108.72
2023-02-06T22:31:36.309Z,103105.63
2023-02-06T22:34:26.231Z,103110.03
2023-02-06T22:36:53.968Z,103120.03
2023-02-06T22:39:21.655Z,103117.50
2023-02-06T22:41:49.704Z,103110.78
2023-02-06T22:44:18.267Z,103109.50
2023-02-06T22:46:47.841Z,103113.56
2023-02-06T22:49:17.444Z,103119.44
2023-02-06T22:51:45.492Z,103130.19
2023-02-06T22:54:13.838Z,103122.22
2023-02-06T22:56:42.611Z,103119.16
2023-02-06T22:59:13.229Z,103127.69
2023-02-06T23:01:42.594Z,103119.81
2023-02-06T23:04:13.967Z,103129.94
2023-02-06T23:06:44.099Z,103132.22
2023-02-06T23:09:14.030Z,103130.03
2023-02-06T23:11:42.068Z,103124.94
2023-02-06T23:14:09.969Z,103127.47
2023-02-06T23:16:37.637Z,103122.19
2023-02-06T23:19:07.214Z,103126.59
2023-02-06T23:21:37.138Z,103137.84
2023-02-06T23:24:07.594Z,103129.25
2023-02-06T23:26:35.819Z,103133.03
2023-02-06T23:29:06.553Z,103130.28
2023-02-06T23:31:34.758Z,103136.44
2023-02-06T23:34:02.571Z,103129.28
2023-02-06T23:36:30.586Z,103120.06
2023-02-06T23:38:58.256Z,103120.06
2023-02-06T23:41:28.598Z,103126.69
2023-02-06T23:43:59.902Z,103132.78
2023-02-06T23:46:29.931Z,103142.28
2023-02-06T23:48:57.758Z,103148.56
2023-02-06T23:51:26.326Z,103138.38
2023-02-06T23:53:54.161Z,103141.00
2023-02-06T23:56:24.882Z,103130.50
2023-02-06T23:58:54.819Z,103128.31
